Time;durP1;ratioP1;P1;durP2;ratioP2;P2;SDS_P1;SDS_P2;PMS_P1;PMS_P2;Temp;Humidity;BMP_temperature;BMP_pressure;BME280_temperature;BME280_humidity;BME280_pressure;Samples;Min_cycle;Max_cycle;Signal;HPM_P1;HPM_P2
2022/07/25 00:01:32;;;;;;;;;;;;;;;30.11;40.84;100806.88;105339;1300;61368;-82
2022/07/25 00:03:58;;;;;;;;;;;;;;;30.11;40.96;100804.32;105204;1300;61275;-83
2022/07/25 00:06:23;;;;;;;;;;;;;;;30.11;40.67;100800.89;105247;1300;61291;-81
2022/07/25 00:08:49;;;;;;;;;;;;;;;30.11;40.98;100793.09;105254;1300;61240;-82
2022/07/25 00:11:15;;;;;;;;;;;;;;;30.11;40.93;100789.15;105138;1300;61981;-81
2022/07/25 00:13:41;;;;;;;;;;;;;;;30.11;40.99;100788.59;105261;1300;61295;-82
2022/07/25 00:16:06;;;;;;;;;;;;;;;30.11;40.85;100785.71;105286;1300;61272;-82
2022/07/25 00:18:32;;;;;;;;;;;;;;;30.11;40.92;100784.58;105157;1300;61274;-82
2022/07/25 00:20:57;;;;;;;;;;;;;;;30.11;40.89;100781.36;105223;1300;61271;-82
2022/07/25 00:23:23;;;;;;;;;;;;;;;30.10;40.77;100778.87;105309;1299;61233;-82
2022/07/25 00:25:48;;;;;;;;;;;;;;;30.10;40.88;100778.11;105229;1299;61999;-82
2022/07/25 00:28:14;;;;;;;;;;;;;;;30.10;40.93;100778.13;105189;1300;61261;-82
2022/07/25 00:30:39;;;;;;;;;;;;;;;30.10;40.92;100777.23;105209;1300;61476;-82
2022/07/25 00:33:05;;;;;;;;;;;;;;;30.10;40.90;100777.78;105183;1300;61467;-81
2022/07/25 00:35:30;;;;;;;;;;;;;;;30.10;40.98;100775.80;105211;1300;61288;-82
2022/07/25 00:37:56;;;;;;;;;;;;;;;30.10;41.08;100775.06;105262;1299;61252;-82
2022/07/25 00:40:21;;;;;;;;;;;;;;;30.10;41.07;100773.30;105262;1300;61268;-82
2022/07/25 00:42:47;;;;;;;;;;;;;;;30.09;41.02;100770.06;105205;1300;60087;-82
2022/07/25 00:45:12;;;;;;;;;;;;;;;30.09;41.05;100777.08;105253;1300;61391;-82
2022/07/25 00:47:38;;;;;;;;;;;;;;;30.09;40.98;100779.45;105240;1298;61282;-82
2022/07/25 00:50:03;;;;;;;;;;;;;;;30.09;41.10;100782.00;105229;1299;61380;-82
2022/07/25 00:52:29;;;;;;;;;;;;;;;30.09;41.11;100778.97;105312;1299;61271;-82
2022/07/25 00:54:55;;;;;;;;;;;;;;;30.09;41.05;100778.77;105296;1299;61301;-82
2022/07/25 00:57:21;;;;;;;;;;;;;;;30.09;41.18;100770.26;105132;1301;61418;-82
2022/07/25 00:59:46;;;;;;;;;;;;;;;30.09;41.19;100771.15;105271;1299;62435;-82
2022/07/25 01:02:12;;;;;;;;;;;;;;;30.09;41.13;100767.36;105194;1300;61250;-82
2022/07/25 01:04:37;;;;;;;;;;;;;;;30.09;41.16;100770.25;105243;1300;61501;-82
2022/07/25 01:07:04;;;;;;;;;;;;;;;30.09;41.12;100772.48;105315;1299;61280;-83
2022/07/25 01:09:29;;;;;;;;;;;;;;;30.09;41.21;100768.66;105288;1299;61361;-82
2022/07/25 01:11:55;;;;;;;;;;;;;;;30.09;41.14;100771.92;105236;1300;61689;-82
2022/07/25 01:14:21;;;;;;;;;;;;;;;30.08;41.24;100769.41;105265;1299;62167;-83
2022/07/25 01:16:46;;;;;;;;;;;;;;;30.08;40.95;100766.17;105222;1300;62875;-83
2022/07/25 01:19:12;;;;;;;;;;;;;;;30.08;41.03;100765.24;105263;1298;61275;-83
2022/07/25 01:21:38;;;;;;;;;;;;;;;30.08;41.43;100762.33;105306;1298;61374;-83
2022/07/25 01:24:04;;;;;;;;;;;;;;;30.08;41.13;100760.90;105299;1299;72732;-82
2022/07/25 01:26:29;;;;;;;;;;;;;;;30.08;41.18;100762.36;105258;1299;61265;-82
2022/07/25 01:28:55;;;;;;;;;;;;;;;30.08;41.27;100762.02;105209;1300;61972;-82
2022/07/25 01:31:21;;;;;;;;;;;;;;;30.08;41.25;100756.41;105319;1299;61400;-82
2022/07/25 01:33:47;;;;;;;;;;;;;;;30.08;41.35;100758.00;105275;1299;61275;-82
2022/07/25 01:36:12;;;;;;;;;;;;;;;30.08;41.26;100757.88;105303;1299;61400;-82
2022/07/25 01:38:38;;;;;;;;;;;;;;;30.08;41.27;100755.86;105235;1299;75590;-82
2022/07/25 01:41:03;;;;;;;;;;;;;;;30.08;41.19;100756.80;105317;1299;61269;-82
2022/07/25 01:43:29;;;;;;;;;;;;;;;30.07;41.30;100762.81;105304;1299;61357;-82
2022/07/25 01:45:54;;;;;;;;;;;;;;;30.07;41.26;100759.92;105331;1299;61930;-82
2022/07/25 01:48:20;;;;;;;;;;;;;;;30.07;41.34;100762.16;105156;1299;61262;-82
2022/07/25 01:50:45;;;;;;;;;;;;;;;30.07;41.33;100761.36;105194;1300;77033;-82
2022/07/25 01:53:11;;;;;;;;;;;;;;;30.08;41.34;100761.14;105206;1300;61410;-82
2022/07/25 01:55:36;;;;;;;;;;;;;;;30.07;41.27;100761.77;105290;1299;61278;-82
2022/07/25 01:58:01;;;;;;;;;;;;;;;30.07;41.14;100763.05;105194;1300;61233;-81
2022/07/25 02:00:27;;;;;;;;;;;;;;;30.07;41.41;100761.75;105249;1300;61403;-82
2022/07/25 02:03:28;;;;;;;;;;;;;;;30.06;41.33;100762.36;105300;1300;61975;-82
2022/07/25 02:05:38;;;;;;;;;;;;;;;30.07;41.36;100759.98;105243;1300;61230;-82
2022/07/25 02:08:03;;;;;;;;;;;;;;;30.07;41.42;100759.61;105293;1299;61343;-82
2022/07/25 02:10:30;;;;;;;;;;;;;;;30.07;41.48;100758.73;105292;1299;61378;-82
2022/07/25 02:12:56;;;;;;;;;;;;;;;30.06;41.47;100756.75;105287;1299;61157;-82
2022/07/25 02:15:21;;;;;;;;;;;;;;;30.06;41.41;100758.21;105281;1299;61287;-82
2022/07/25 02:17:47;;;;;;;;;;;;;;;30.07;41.25;100757.26;105160;1300;61310;-82
2022/07/25 02:20:12;;;;;;;;;;;;;;;30.06;41.54;100752.57;105273;1299;61374;-82
2022/07/25 02:22:37;;;;;;;;;;;;;;;30.06;41.47;100750.77;105271;1299;61399;-82
2022/07/25 02:25:04;;;;;;;;;;;;;;;30.06;41.42;100746.61;105265;1299;61304;-82
2022/07/25 02:27:29;;;;;;;;;;;;;;;30.06;41.54;100746.45;105228;1299;61279;-82
2022/07/25 02:29:55;;;;;;;;;;;;;;;30.06;41.39;100741.91;105212;1299;61200;-82
2022/07/25 02:32:20;;;;;;;;;;;;;;;30.06;41.39;100741.73;105254;1299;61381;-82
2022/07/25 02:34:46;;;;;;;;;;;;;;;30.06;41.56;100744.84;105307;1299;61235;-82
2022/07/25 02:37:11;;;;;;;;;;;;;;;30.06;41.44;100748.99;105287;1299;61254;-82
2022/07/25 02:39:37;;;;;;;;;;;;;;;30.06;41.54;100748.28;105275;1299;61334;-82
2022/07/25 02:42:02;;;;;;;;;;;;;;;30.06;41.55;100752.49;105255;1300;61255;-82
2022/07/25 02:44:28;;;;;;;;;;;;;;;30.06;41.49;100750.27;105221;1300;61163;-82
2022/07/25 02:46:53;;;;;;;;;;;;;;;30.06;41.52;100749.93;105262;1299;72933;-82
2022/07/25 02:49:19;;;;;;;;;;;;;;;30.05;41.58;100748.39;105282;1299;61313;-82
2022/07/25 02:51:44;;;;;;;;;;;;;;;30.05;41.34;100745.45;105194;1300;61251;-81
2022/07/25 02:54:11;;;;;;;;;;;;;;;30.05;41.53;100746.55;105194;1300;61982;-82
2022/07/25 02:56:37;;;;;;;;;;;;;;;30.05;41.50;100746.21;105218;1300;61292;-82
2022/07/25 02:59:02;;;;;;;;;;;;;;;30.05;41.48;100748.77;105227;1300;61333;-81
2022/07/25 03:01:28;;;;;;;;;;;;;;;30.05;41.70;100749.34;105201;1299;74982;-82
2022/07/25 03:03:53;;;;;;;;;;;;;;;30.05;41.59;100753.87;105300;1299;61789;-82
2022/07/25 03:06:18;;;;;;;;;;;;;;;30.04;41.54;100754.45;105218;1300;61265;-82
2022/07/25 03:08:44;;;;;;;;;;;;;;;30.04;41.62;100751.91;105220;1300;61992;-82
2022/07/25 03:11:10;;;;;;;;;;;;;;;30.05;41.62;100751.48;105354;1299;61281;-82
2022/07/25 03:13:35;;;;;;;;;;;;;;;30.04;41.63;100755.16;105288;1300;75687;-82
2022/07/25 03:16:01;;;;;;;;;;;;;;;30.04;41.72;100757.33;105326;1300;61270;-81
2022/07/25 03:18:27;;;;;;;;;;;;;;;30.04;41.68;100750.09;105199;1300;61275;-81
2022/07/25 03:20:52;;;;;;;;;;;;;;;30.04;41.74;100751.00;105170;1300;61476;-81
2022/07/25 03:23:18;;;;;;;;;;;;;;;30.04;41.64;100747.73;105199;1300;63009;-81
2022/07/25 03:25:44;;;;;;;;;;;;;;;30.04;41.60;100750.63;105339;1300;61285;-81
2022/07/25 03:28:10;;;;;;;;;;;;;;;30.04;41.63;100754.65;105234;1300;61462;-81
2022/07/25 03:30:35;;;;;;;;;;;;;;;30.04;41.62;100754.81;105297;1299;61254;-81
2022/07/25 03:33:00;;;;;;;;;;;;;;;30.04;41.69;100758.83;105215;1299;61275;-81
2022/07/25 03:35:26;;;;;;;;;;;;;;;30.05;41.82;100753.15;105207;1300;61394;-81
2022/07/25 03:37:52;;;;;;;;;;;;;;;30.05;41.74;100753.91;105285;1300;61300;-81
2022/07/25 03:40:19;;;;;;;;;;;;;;;30.04;41.59;100756.62;105274;1299;61985;-81
2022/07/25 03:42:44;;;;;;;;;;;;;;;30.04;41.71;100754.64;105295;1299;61171;-81
2022/07/25 03:45:10;;;;;;;;;;;;;;;30.04;41.73;100754.61;105225;1300;61273;-81
2022/07/25 03:47:36;;;;;;;;;;;;;;;30.04;41.73;100754.45;105122;1302;61289;-81
2022/07/25 03:50:02;;;;;;;;;;;;;;;30.05;41.64;100758.00;105299;1299;61266;-81
2022/07/25 03:52:27;;;;;;;;;;;;;;;30.04;41.93;100758.42;105308;1299;61246;-81
2022/07/25 03:54:52;;;;;;;;;;;;;;;30.05;41.72;100760.77;105236;1300;61407;-82
2022/07/25 03:57:18;;;;;;;;;;;;;;;30.05;41.83;100762.20;105284;1300;61383;-82
2022/07/25 03:59:43;;;;;;;;;;;;;;;30.05;41.78;100761.83;105224;1300;61259;-81
2022/07/25 04:02:10;;;;;;;;;;;;;;;30.05;41.85;100757.09;105256;1299;61347;-81
2022/07/25 04:04:35;;;;;;;;;;;;;;;30.05;41.78;100758.52;105159;1303;61272;-81
2022/07/25 04:07:01;;;;;;;;;;;;;;;30.05;41.90;100756.76;105271;1300;61403;-83
2022/07/25 04:09:26;;;;;;;;;;;;;;;30.05;41.76;100754.75;105297;1300;73902;-83
2022/07/25 04:11:52;;;;;;;;;;;;;;;30.05;41.85;100749.84;105206;1300;61463;-83
2022/07/25 04:14:17;;;;;;;;;;;;;;;30.05;41.78;100757.84;105239;1300;61254;-83
2022/07/25 04:16:43;;;;;;;;;;;;;;;30.05;41.98;100758.56;105252;1300;61402;-82
2022/07/25 04:19:08;;;;;;;;;;;;;;;30.05;41.84;100764.14;105186;1300;61286;-82
2022/07/25 04:21:34;;;;;;;;;;;;;;;30.06;41.96;100765.73;105231;1300;72877;-83
2022/07/25 04:23:59;;;;;;;;;;;;;;;30.05;41.88;100762.50;105294;1299;61342;-83
2022/07/25 04:26:25;;;;;;;;;;;;;;;30.06;41.98;100766.98;105135;1303;61269;-82
2022/07/25 04:28:50;;;;;;;;;;;;;;;30.05;41.69;100768.11;105306;1299;61230;-81
2022/07/25 04:31:16;;;;;;;;;;;;;;;30.06;42.04;100769.67;105224;1300;61264;-81
2022/07/25 04:33:41;;;;;;;;;;;;;;;30.05;42.07;100771.17;105343;1299;62476;-82
2022/07/25 04:36:07;;;;;;;;;;;;;;;30.05;41.95;100776.44;105331;1300;61266;-82
2022/07/25 04:38:33;;;;;;;;;;;;;;;30.05;42.06;100779.54;105205;1300;61396;-82
2022/07/25 04:40:58;;;;;;;;;;;;;;;30.06;42.00;100780.59;105272;1300;61281;-82
2022/07/25 04:43:24;;;;;;;;;;;;;;;30.06;42.04;100784.38;105133;1302;61331;-82
2022/07/25 04:45:49;;;;;;;;;;;;;;;30.06;41.93;100784.00;105241;1300;61270;-82
2022/07/25 04:48:15;;;;;;;;;;;;;;;30.06;42.02;100785.09;105098;1300;74852;-82
2022/07/25 04:50:40;;;;;;;;;;;;;;;30.06;41.98;100787.98;105243;1300;61367;-82
2022/07/25 04:53:06;;;;;;;;;;;;;;;30.06;41.97;100787.95;105220;1299;61268;-83
2022/07/25 04:55:32;;;;;;;;;;;;;;;30.06;41.96;100789.63;105099;1302;61292;-84
2022/07/25 04:57:58;;;;;;;;;;;;;;;30.06;42.01;100792.16;105131;1300;61223;-83
2022/07/25 05:00:24;;;;;;;;;;;;;;;30.06;42.05;100790.57;105213;1300;61352;-83
2022/07/25 05:02:50;;;;;;;;;;;;;;;30.06;41.92;100788.56;105320;1299;60006;-83
2022/07/25 05:05:16;;;;;;;;;;;;;;;30.06;42.13;100787.84;105211;1302;61595;-83
2022/07/25 05:07:41;;;;;;;;;;;;;;;30.06;42.01;100786.80;105254;1298;61237;-84
2022/07/25 05:10:07;;;;;;;;;;;;;;;30.05;42.17;100785.58;105278;1299;61368;-82
2022/07/25 05:12:33;;;;;;;;;;;;;;;30.05;42.02;100792.82;105268;1299;59298;-81
2022/07/25 05:14:58;;;;;;;;;;;;;;;30.05;41.97;100787.95;105315;1300;61295;-82
2022/07/25 05:17:23;;;;;;;;;;;;;;;30.05;41.91;100791.42;105236;1298;62729;-81
2022/07/25 05:19:49;;;;;;;;;;;;;;;30.05;41.83;100793.95;105297;1299;61284;-82
2022/07/25 05:22:15;;;;;;;;;;;;;;;30.05;41.82;100794.11;105198;1299;61245;-82
2022/07/25 05:24:40;;;;;;;;;;;;;;;30.05;41.90;100794.69;105142;1301;62017;-82
2022/07/25 05:27:06;;;;;;;;;;;;;;;30.05;41.90;100799.80;105263;1300;61305;-82
2022/07/25 05:29:32;;;;;;;;;;;;;;;30.05;41.95;100806.84;105288;1299;61172;-82
2022/07/25 05:31:57;;;;;;;;;;;;;;;30.04;41.71;100805.77;105225;1300;59832;-82
2022/07/25 05:34:23;;;;;;;;;;;;;;;30.05;41.94;100803.95;105102;1302;61366;-82
2022/07/25 05:36:48;;;;;;;;;;;;;;;30.05;41.72;100808.27;105285;1300;61294;-82
2022/07/25 05:39:14;;;;;;;;;;;;;;;30.05;41.94;100807.14;105343;1298;61279;-82
2022/07/25 05:41:39;;;;;;;;;;;;;;;30.05;42.00;100811.70;105194;1300;61246;-81
2022/07/25 05:44:04;;;;;;;;;;;;;;;30.05;41.79;100816.02;105224;1300;61261;-82
2022/07/25 05:46:33;;;;;;;;;;;;;;;30.06;41.74;100814.85;105291;1299;61325;-82
2022/07/25 05:48:59;;;;;;;;;;;;;;;30.06;41.69;100815.02;105150;1302;61277;-82
2022/07/25 05:51:24;;;;;;;;;;;;;;;30.06;41.71;100816.98;105317;1300;61256;-82
2022/07/25 05:53:50;;;;;;;;;;;;;;;30.07;41.75;100813.08;105209;1300;61348;-82
2022/07/25 05:56:15;;;;;;;;;;;;;;;30.08;41.68;100815.85;105251;1299;61286;-82
2022/07/25 05:58:41;;;;;;;;;;;;;;;30.09;41.58;100810.89;105226;1300;61307;-82
2022/07/25 06:01:07;;;;;;;;;;;;;;;30.10;41.57;100812.29;105235;1300;61270;-82
2022/07/25 06:03:33;;;;;;;;;;;;;;;30.11;41.63;100813.81;105223;1300;61256;-82
2022/07/25 06:05:59;;;;;;;;;;;;;;;30.12;41.65;100816.54;105254;1300;61256;-82
2022/07/25 06:08:27;;;;;;;;;;;;;;;30.13;41.61;100809.42;105304;1299;61266;-82
2022/07/25 06:10:53;;;;;;;;;;;;;;;30.14;41.55;100809.97;105220;1300;61287;-82
2022/07/25 06:13:18;;;;;;;;;;;;;;;30.15;41.59;100810.61;105278;1299;61269;-81
2022/07/25 06:15:44;;;;;;;;;;;;;;;30.16;41.54;100805.27;105195;1300;61310;-82
2022/07/25 06:18:10;;;;;;;;;;;;;;;30.17;41.45;100810.98;105307;1299;61362;-82
2022/07/25 06:20:35;;;;;;;;;;;;;;;30.17;41.31;100809.49;105268;1299;61294;-82
2022/07/25 06:23:02;;;;;;;;;;;;;;;30.19;41.39;100811.13;105279;1299;61169;-82
2022/07/25 06:25:28;;;;;;;;;;;;;;;30.19;41.41;100807.78;105265;1298;61366;-82
2022/07/25 06:27:53;;;;;;;;;;;;;;;30.20;41.38;100815.00;104668;1300;815090;-82
2022/07/25 06:30:19;;;;;;;;;;;;;;;30.20;41.22;100814.56;105297;1300;61352;-82
2022/07/25 06:32:44;;;;;;;;;;;;;;;30.21;41.16;100815.73;105053;1300;61319;-82
2022/07/25 06:35:10;;;;;;;;;;;;;;;30.22;41.32;100823.08;105077;1300;61267;-82
2022/07/25 06:37:36;;;;;;;;;;;;;;;30.23;41.30;100820.63;105136;1300;61274;-82
2022/07/25 06:40:01;;;;;;;;;;;;;;;30.24;41.29;100817.46;105256;1299;61438;-82
2022/07/25 06:42:30;;;;;;;;;;;;;;;30.24;41.22;100812.98;105319;1300;61258;-82
2022/07/25 06:44:56;;;;;;;;;;;;;;;30.26;41.10;100814.14;105244;1300;61232;-82
2022/07/25 06:47:21;;;;;;;;;;;;;;;30.26;41.16;100816.51;105254;1299;61252;-82
2022/07/25 06:49:47;;;;;;;;;;;;;;;30.27;41.09;100817.14;105367;1298;61944;-82
2022/07/25 06:52:12;;;;;;;;;;;;;;;30.27;40.95;100814.56;105294;1300;61258;-82
2022/07/25 06:54:38;;;;;;;;;;;;;;;30.28;41.04;100818.67;105258;1300;61285;-82
2022/07/25 06:57:03;;;;;;;;;;;;;;;30.28;41.08;100822.80;105295;1300;61281;-82
2022/07/25 06:59:29;;;;;;;;;;;;;;;30.28;41.00;100826.48;105264;1299;61271;-82
2022/07/25 07:01:54;;;;;;;;;;;;;;;30.29;40.94;100823.44;105310;1300;61220;-82
2022/07/25 07:04:20;;;;;;;;;;;;;;;30.29;40.95;100826.17;105192;1300;61994;-82
2022/07/25 07:06:45;;;;;;;;;;;;;;;30.29;40.70;100827.39;105315;1299;61355;-82
2022/07/25 07:09:11;;;;;;;;;;;;;;;30.29;40.78;100823.95;105296;1300;61384;-82
2022/07/25 07:11:37;;;;;;;;;;;;;;;30.29;40.75;100816.16;105288;1300;61246;-82
2022/07/25 07:14:02;;;;;;;;;;;;;;;30.29;40.78;100823.41;105230;1300;61357;-81
2022/07/25 07:16:31;;;;;;;;;;;;;;;30.30;40.84;100821.88;105206;1300;61287;-81
2022/07/25 07:18:56;;;;;;;;;;;;;;;30.30;40.70;100822.95;105252;1300;61310;-81
2022/07/25 07:21:22;;;;;;;;;;;;;;;30.30;40.67;100821.13;105238;1299;61377;-83
2022/07/25 07:23:48;;;;;;;;;;;;;;;30.31;40.63;100824.84;105307;1300;61275;-82
2022/07/25 07:26:13;;;;;;;;;;;;;;;30.31;40.54;100819.56;105215;1299;61243;-81
2022/07/25 07:28:38;;;;;;;;;;;;;;;30.31;40.58;100828.27;105338;1300;61362;-81
2022/07/25 07:31:04;;;;;;;;;;;;;;;30.31;40.53;100825.02;105288;1300;61278;-82
2022/07/25 07:33:29;;;;;;;;;;;;;;;30.31;40.71;100831.02;105232;1300;61296;-82
2022/07/25 07:35:55;;;;;;;;;;;;;;;30.31;40.45;100828.83;105355;1298;61683;-81
2022/07/25 07:38:24;;;;;;;;;;;;;;;30.31;40.42;100830.13;105386;1300;61956;-81
2022/07/25 07:40:49;;;;;;;;;;;;;;;30.31;40.50;100825.21;105298;1298;61187;-82
2022/07/25 07:43:15;;;;;;;;;;;;;;;30.31;40.35;100829.88;105353;1300;61213;-82
2022/07/25 07:45:40;;;;;;;;;;;;;;;30.31;40.41;100825.92;105142;1299;61324;-82
2022/07/25 07:48:06;;;;;;;;;;;;;;;30.31;40.35;100828.25;105192;1300;61303;-82
2022/07/25 07:50:32;;;;;;;;;;;;;;;30.31;40.25;100827.70;105244;1299;74970;-82
2022/07/25 07:52:57;;;;;;;;;;;;;;;30.32;40.18;100832.60;105264;1300;61322;-82
2022/07/25 07:58:07;;;;;;;;;;;;;;;30.31;40.23;100822.82;105206;1299;71839;-82
2022/07/25 08:00:35;;;;;;;;;;;;;;;30.32;40.18;100821.30;105321;1298;61994;-83
2022/07/25 08:03:00;;;;;;;;;;;;;;;30.32;40.09;100815.30;105255;1300;61210;-83
2022/07/25 08:05:27;;;;;;;;;;;;;;;30.32;40.13;100811.88;105275;1300;61375;-83
2022/07/25 08:07:53;;;;;;;;;;;;;;;30.32;40.06;100814.44;105226;1299;61255;-83
2022/07/25 08:10:23;;;;;;;;;;;;;;;30.32;40.05;100811.50;105240;1300;61410;-82
2022/07/25 08:12:49;;;;;;;;;;;;;;;30.31;39.83;100809.18;105307;1299;61445;-82
2022/07/25 08:15:14;;;;;;;;;;;;;;;30.31;39.96;100811.52;105241;1300;61310;-83
2022/07/25 08:17:40;;;;;;;;;;;;;;;30.32;39.82;100817.31;105246;1300;61263;-81
2022/07/25 08:20:07;;;;;;;;;;;;;;;30.32;39.98;100812.20;105265;1300;61696;-81
2022/07/25 08:22:39;;;;;;;;;;;;;;;30.32;39.77;100809.73;105462;1300;61252;-82
2022/07/25 08:25:05;;;;;;;;;;;;;;;30.32;39.81;100813.14;105257;1300;61786;-82
2022/07/25 08:27:30;;;;;;;;;;;;;;;30.32;39.91;100817.16;105321;1300;61246;-82
2022/07/25 08:29:57;;;;;;;;;;;;;;;30.32;39.83;100812.59;105112;1300;61390;-82
2022/07/25 08:32:23;;;;;;;;;;;;;;;30.32;39.74;100811.46;105106;1300;61241;-83
2022/07/25 08:34:48;;;;;;;;;;;;;;;30.32;39.67;100814.86;105306;1300;61357;-82
2022/07/25 08:37:13;;;;;;;;;;;;;;;30.33;39.64;100808.84;105168;1302;61254;-82
2022/07/25 08:39:40;;;;;;;;;;;;;;;30.33;39.72;100809.92;105264;1300;61311;-82
2022/07/25 08:42:06;;;;;;;;;;;;;;;30.32;39.54;100808.15;105285;1300;75631;-82
2022/07/25 08:44:32;;;;;;;;;;;;;;;30.33;39.69;100808.67;105263;1300;61357;-81
2022/07/25 08:46:57;;;;;;;;;;;;;;;30.33;39.57;100807.58;105168;1298;61418;-81
2022/07/25 08:49:23;;;;;;;;;;;;;;;30.33;39.67;100805.43;105129;1299;61287;-82
2022/07/25 08:51:49;;;;;;;;;;;;;;;30.33;39.48;100807.38;105164;1300;61258;-82
2022/07/25 08:54:15;;;;;;;;;;;;;;;30.33;39.51;100803.39;105303;1300;61379;-82
2022/07/25 08:56:41;;;;;;;;;;;;;;;30.33;39.39;100800.46;105321;1300;61357;-82
2022/07/25 08:59:08;;;;;;;;;;;;;;;30.33;39.42;100799.37;105311;1299;61352;-81
2022/07/25 09:01:34;;;;;;;;;;;;;;;30.33;39.35;100805.95;105335;1300;73835;-81
2022/07/25 09:04:00;;;;;;;;;;;;;;;30.33;39.29;100806.28;105247;1299;61236;-81
2022/07/25 09:06:25;;;;;;;;;;;;;;;30.33;39.26;100805.16;105344;1300;61278;-81
2022/07/25 09:08:54;;;;;;;;;;;;;;;30.33;39.15;100806.97;105277;1300;61435;-82
2022/07/25 09:11:33;;;;;;;;;;;;;;;30.33;39.23;100808.77;105249;1299;61399;-81
2022/07/25 09:14:00;;;;;;;;;;;;;;;30.33;39.07;100809.15;105291;1300;74918;-83
2022/07/25 09:16:30;;;;;;;;;;;;;;;30.33;39.04;100807.17;105294;1300;61340;-83
2022/07/25 09:19:04;;;;;;;;;;;;;;;30.33;39.10;100802.81;105140;1300;61580;-83
2022/07/25 09:21:30;;;;;;;;;;;;;;;30.33;39.21;100801.34;105300;1300;72644;-82
2022/07/25 09:23:57;;;;;;;;;;;;;;;30.33;39.00;100800.43;105305;1299;61284;-82
2022/07/25 09:26:23;;;;;;;;;;;;;;;30.34;38.86;100804.75;105244;1299;61270;-82
2022/07/25 09:28:50;;;;;;;;;;;;;;;30.34;38.85;100802.89;105329;1300;61332;-82
2022/07/25 09:31:16;;;;;;;;;;;;;;;30.34;38.92;100802.58;105252;1300;61297;-82
2022/07/25 09:33:50;;;;;;;;;;;;;;;30.34;38.89;100805.80;105116;1301;61332;-83
2022/07/25 09:36:16;;;;;;;;;;;;;;;30.34;38.92;100802.17;105178;1300;61259;-83
2022/07/25 09:38:51;;;;;;;;;;;;;;;30.34;38.84;100798.22;105237;1298;61363;-82
2022/07/25 09:41:17;;;;;;;;;;;;;;;30.34;38.92;100806.73;105321;1300;72829;-82
2022/07/25 09:43:43;;;;;;;;;;;;;;;30.34;38.98;100802.03;105305;1300;61189;-82
2022/07/25 09:46:09;;;;;;;;;;;;;;;30.34;38.92;100804.04;105271;1300;61304;-82
2022/07/25 09:48:35;;;;;;;;;;;;;;;30.34;38.91;100796.93;105284;1299;61262;-83
2022/07/25 09:51:00;;;;;;;;;;;;;;;30.33;38.98;100798.80;105455;1300;61223;-83
2022/07/25 09:53:26;;;;;;;;;;;;;;;30.34;38.69;100797.82;105594;1300;61303;-82
2022/07/25 09:55:55;;;;;;;;;;;;;;;30.33;38.79;100797.34;105554;1299;75717;-83
2022/07/25 09:58:28;;;;;;;;;;;;;;;30.33;38.78;100792.64;105551;1297;61317;-83
2022/07/25 10:01:01;;;;;;;;;;;;;;;30.34;38.69;100793.98;105627;1300;61490;-82
2022/07/25 10:03:37;;;;;;;;;;;;;;;30.35;38.66;100797.87;105590;1300;73057;-83
2022/07/25 10:06:06;;;;;;;;;;;;;;;30.35;38.67;100786.03;105032;1300;74730;-83
2022/07/25 10:08:36;;;;;;;;;;;;;;;30.36;38.61;100782.55;105079;1300;61163;-82
2022/07/25 10:11:04;;;;;;;;;;;;;;;30.36;38.50;100779.63;105044;1300;61242;-82
2022/07/25 10:13:34;;;;;;;;;;;;;;;30.36;38.46;100774.70;105109;1300;72747;-82
2022/07/25 10:15:59;;;;;;;;;;;;;;;30.36;38.59;100769.59;105127;1300;61448;-82
2022/07/25 10:18:26;;;;;;;;;;;;;;;30.36;38.54;100764.14;105188;1300;61370;-82
2022/07/25 10:21:07;;;;;;;;;;;;;;;30.36;38.47;100766.73;105214;1300;61130;-82
2022/07/25 10:23:33;;;;;;;;;;;;;;;30.36;38.29;100757.27;105209;1300;73244;-82
2022/07/25 10:26:03;;;;;;;;;;;;;;;30.35;38.47;100757.54;105037;1300;61422;-82
2022/07/25 10:28:39;;;;;;;;;;;;;;;30.35;38.49;100753.42;105211;1300;60097;-82
2022/07/25 10:31:15;;;;;;;;;;;;;;;30.35;38.32;100748.86;105205;1300;61306;-82
2022/07/25 10:33:41;;;;;;;;;;;;;;;30.35;38.22;100754.89;105226;1300;72787;-83
2022/07/25 10:36:06;;;;;;;;;;;;;;;30.35;38.30;100757.27;105283;1300;61307;-83
2022/07/25 10:38:32;;;;;;;;;;;;;;;30.34;38.37;100748.96;105214;1300;62499;-82
2022/07/25 10:40:59;;;;;;;;;;;;;;;30.34;38.24;100742.44;105203;1300;61240;-82
2022/07/25 10:43:26;;;;;;;;;;;;;;;30.34;38.30;100747.54;105291;1300;61281;-82
2022/07/25 10:45:55;;;;;;;;;;;;;;;30.34;38.27;100748.66;105190;1300;61167;-82
2022/07/25 10:48:25;;;;;;;;;;;;;;;30.33;38.28;100750.05;105290;1300;61169;-82
2022/07/25 10:50:52;;;;;;;;;;;;;;;30.33;38.22;100749.85;105260;1299;61553;-82
2022/07/25 10:53:50;;;;;;;;;;;;;;;30.33;38.11;100748.58;105191;1300;74065;-82
2022/07/25 10:56:16;;;;;;;;;;;;;;;30.32;38.22;100737.77;104826;1306;75785;-82
2022/07/25 10:58:44;;;;;;;;;;;;;;;30.32;38.40;100731.77;104844;1306;61322;-82
2022/07/25 11:01:10;;;;;;;;;;;;;;;30.32;38.10;100731.06;104858;1306;61285;-82
2022/07/25 11:03:35;;;;;;;;;;;;;;;30.32;38.04;100724.56;104860;1306;61310;-82
2022/07/25 11:06:01;;;;;;;;;;;;;;;30.32;38.03;100723.48;104862;1306;61413;-84
2022/07/25 11:08:30;;;;;;;;;;;;;;;30.32;38.12;100721.84;104884;1305;62088;-84
2022/07/25 11:10:55;;;;;;;;;;;;;;;30.31;38.09;100714.48;104631;1306;61356;-81
2022/07/25 11:13:20;;;;;;;;;;;;;;;30.30;38.01;100714.54;104872;1306;82699;-82
2022/07/25 11:15:46;;;;;;;;;;;;;;;30.31;37.94;100712.73;104831;1304;61353;-82
2022/07/25 11:18:12;;;;;;;;;;;;;;;30.30;37.98;100707.83;104695;1306;61278;-82
2022/07/25 11:20:38;;;;;;;;;;;;;;;30.31;38.07;100713.82;104770;1306;61371;-82
2022/07/25 11:23:03;;;;;;;;;;;;;;;30.30;38.12;100710.01;104641;1306;61394;-82
2022/07/25 11:25:29;;;;;;;;;;;;;;;30.30;38.08;100706.23;104482;1308;61241;-82
2022/07/25 11:27:56;;;;;;;;;;;;;;;30.30;38.22;100701.71;104582;1308;61524;-82
2022/07/25 11:30:21;;;;;;;;;;;;;;;30.30;37.99;100700.27;104645;1306;61552;-82
2022/07/25 11:32:52;;;;;;;;;;;;;;;30.30;38.00;100694.28;104803;1300;61287;-82
2022/07/25 11:35:20;;;;;;;;;;;;;;;30.30;37.88;100692.65;105215;1300;71755;-82
2022/07/25 11:37:47;;;;;;;;;;;;;;;30.30;38.00;100689.95;105187;1300;76902;-82
2022/07/25 11:40:15;;;;;;;;;;;;;;;30.30;37.87;100684.27;105264;1300;61237;-82
2022/07/25 11:42:41;;;;;;;;;;;;;;;30.30;38.00;100687.71;105184;1300;61395;-82
2022/07/25 11:45:17;;;;;;;;;;;;;;;30.30;38.17;100685.95;105302;1300;61231;-82
2022/07/25 11:47:42;;;;;;;;;;;;;;;30.30;37.92;100683.40;105220;1300;75739;-82
2022/07/25 11:50:13;;;;;;;;;;;;;;;30.30;37.84;100683.56;105110;1300;62017;-82
2022/07/25 11:52:39;;;;;;;;;;;;;;;30.30;37.93;100681.15;105302;1300;61364;-82
2022/07/25 11:55:07;;;;;;;;;;;;;;;30.30;37.97;100672.43;105201;1300;61418;-82
2022/07/25 11:57:36;;;;;;;;;;;;;;;30.31;37.96;100666.96;105218;1300;75658;-82
2022/07/25 12:00:22;;;;;;;;;;;;;;;30.31;37.93;100659.79;105186;1301;61040;-81
2022/07/25 12:02:48;;;;;;;;;;;;;;;30.31;37.94;100660.75;105267;1299;61246;-82
2022/07/25 12:05:15;;;;;;;;;;;;;;;30.31;37.91;100664.73;105218;1300;61380;-82
2022/07/25 12:07:51;;;;;;;;;;;;;;;30.31;38.12;100662.14;105196;1300;61171;-82
2022/07/25 12:10:35;;;;;;;;;;;;;;;30.32;37.93;100663.03;105230;1300;61276;-82
2022/07/25 12:13:02;;;;;;;;;;;;;;;30.32;38.03;100655.71;105263;1300;61249;-82
2022/07/25 12:15:38;;;;;;;;;;;;;;;30.33;38.11;100657.65;105228;1299;74112;-82
2022/07/25 12:18:04;;;;;;;;;;;;;;;30.32;38.00;100649.67;105294;1300;74276;-82
2022/07/25 12:20:34;;;;;;;;;;;;;;;30.34;38.01;100649.36;105214;1300;61652;-82
2022/07/25 12:23:03;;;;;;;;;;;;;;;30.33;38.14;100645.95;105171;1300;61364;-82
2022/07/25 12:25:30;;;;;;;;;;;;;;;30.34;38.07;100645.50;105337;1300;73832;-82